• Join FlightAware (Why Join?)
  • Login
  • US Flag GB Flag 
08:08 EDT


 

Airport Tracker/Info


-or-


 

Live Flight TrackerFlight Track Log ✈ AAL963 ✈ 18-Jun-2013 ✈ KDFW - SBGR / GRU

Flight Track Log - Related Links

Times and Time Zones

All times are in EDT time to prevent confusion due to time zone crossing. See the AAL963 flight status page for this flight to view local times or setup timezone preferences in your user account.

Time Position Orientation Groundspeed Altitude Reporting Facility
EDT Latitude Longitude Course Direction KTS MPH feet Rate Location/Type
21:14 32.7940 -97.0520 180° South 232 267 3,100  Level FlightAware
21:14 32.7620 -97.0530 182° South 255 293 3,700 1,560 Climbing FlightAware
21:15 32.7350 -97.0540 182° South 258 297 4,500 1,980 Climbing FlightAware
21:16 32.6490 -97.0240 164° South 276 318 6,900 1,860 Climbing FlightAware
21:16 32.6160 -97.0030 152° Southeast 291 335 7,600 1,620 Climbing FlightAware
21:17 32.6010 -96.9930 151° Southeast 293 337 8,000 2,160 Climbing FlightAware
21:17 32.5660 -96.9740 155° Southeast 294 338 9,100 1,920 Climbing FlightAware
21:18 32.5140 -96.9440 154° Southeast 305 351 10,300 1,320 Climbing FlightAware
21:19 32.4540 -96.9100 154° Southeast 346 398 11,000 1,080 Climbing FlightAware
21:19 32.3880 -96.8730 155° Southeast 376 433 11,900 1,320 Climbing FlightAware
21:20 32.3210 -96.8360 155° Southeast 401 461 12,900 1,800 Climbing FlightAware
21:21 32.2520 -96.8040 159° South 405 466 14,400 2,100 Climbing FlightAware
21:21 32.1770 -96.7740 161° South 416 479 15,800 1,860 Climbing FlightAware
21:22 32.0930 -96.7420 162° South 428 493 17,100 1,680 Climbing FlightAware
21:23 32.0180 -96.7130 162° South 440 506 18,200 1,680 Climbing FlightAware
21:23 31.9300 -96.6800 162° South 452 520 19,500 1,860 Climbing FlightAware
21:24 31.8865 -96.6640 163° South 452 520 20,300 1,920 Climbing FlightAware ADS-B
21:24 31.8246 -96.6394 161° South 455 524 21,200 1,800 Climbing FlightAware ADS-B
21:25 31.7536 -96.6099 161° South 462 532 22,300 1,800 Climbing FlightAware ADS-B
21:25 31.6943 -96.5952 168° South 461 531 23,100 1,680 Climbing FlightAware ADS-B
21:26 31.6305 -96.5866 173° South 463 533 24,000 2,280 Climbing FlightAware ADS-B
21:27 31.5501 -96.5753 173° South 458 527 25,700 2,820 Climbing FlightAware ADS-B
21:27 31.4832 -96.5654 173° South 433 498 27,400 1,800 Climbing FlightAware ADS-B
21:28 31.3960 -96.5507 171° South 441 507 28,100 840 Climbing FlightAware ADS-B
21:29 31.3078 -96.5091 150° Southeast 461 531 28,700 600 Climbing FlightAware ADS-B
21:29 31.2371 -96.4475 143° Southeast 479 551 29,000 540 Climbing FlightAware ADS-B
21:30 31.1924 -96.4061 142° Southeast 488 562 29,300 540 Climbing FlightAware ADS-B
21:30 31.1516 -96.3578 133° Southeast 499 574 29,500 420 Climbing FlightAware ADS-B
21:30 31.1319 -96.3281 128° Southeast 503 579 29,600 480 Climbing FlightAware ADS-B
21:31 31.0898 -96.2592 125° Southeast 512 589 29,900 660 Climbing FlightAware ADS-B
21:31 31.0476 -96.1904 126° Southeast 518 596 30,300 1,140 Climbing FlightAware ADS-B
21:33 30.8760 -95.9126 126° Southeast 512 589 32,900 1,200 Climbing FlightAware ADS-B
21:34 30.7910 -95.7761 126° Southeast 511 588 34,000 1,020 Climbing FlightAware ADS-B
21:35 30.7489 -95.7085 126° Southeast 509 586 34,500 1,080 Climbing FlightAware ADS-B
21:36 30.6653 -95.5744 126° Southeast 500 575 35,700 1,080 Climbing FlightAware ADS-B
21:36 30.6239 -95.5082 126° Southeast 498 573 36,200 600 Climbing FlightAware ADS-B
21:38 30.5021 -95.3140 126° Southeast 488 562 37,000 180 Climbing FlightAware ADS-B
21:40 30.3366 -95.0515 126° Southeast 483 556 37,000  Level FlightAware ADS-B
21:41 30.2966 -94.9884 126° Southeast 482 555 37,000  Level FlightAware ADS-B
21:43 30.0963 -94.6738 126° Southeast 479 551 37,000  Level FlightAware ADS-B
21:44 30.0567 -94.6120 127° Southeast 478 550 37,000  Level FlightAware ADS-B
21:44 30.0166 -94.5493 126° Southeast 481 554 37,000  Level FlightAware ADS-B
21:45 29.9363 -94.4243 127° Southeast 481 554 37,000  Level FlightAware ADS-B
21:46 29.8965 -94.3624 127° Southeast 480 552 37,000  Level FlightAware ADS-B
21:48 29.7319 -94.1075 127° Southeast 485 558 37,000  Level FlightAware ADS-B
21:48 29.7014 -94.0627 128° Southeast 484 557 37,000  Level FlightAware ADS-B
21:48 29.6702 -94.0265 135° Southeast 481 554 37,000  Level FlightAware ADS-B
21:49 29.6181 -93.9783 141° Southeast 479 551 37,000  Level FlightAware ADS-B
21:49 29.5645 -93.9325 143° Southeast 478 550 37,000  Level FlightAware ADS-B
21:50 29.4908 -93.8702 144° Southeast 480 552 37,000  Level FlightAware ADS-B
21:51 29.4355 -93.8233 144° Southeast 480 552 37,000  Level FlightAware ADS-B
21:51 29.3789 -93.7751 143° Southeast 480 552 37,000  Level FlightAware ADS-B
21:52 29.3223 -93.7270 143° Southeast 481 554 37,000  Level FlightAware ADS-B
21:53 29.2201 -93.6401 143° Southeast 482 555 37,000  Level FlightAware ADS-B
21:53 29.1660 -93.5943 144° Southeast 483 556 37,000  Level FlightAware ADS-B
21:54 29.1119 -93.5486 144° Southeast 485 558 37,000  Level FlightAware ADS-B
21:54 29.0492 -93.4955 143° Southeast 485 558 37,000  Level FlightAware ADS-B
21:55 28.9943 -93.4493 144° Southeast 487 560 37,000  Level FlightAware ADS-B
21:55 28.9366 -93.4007 144° Southeast 488 562 37,000  Level FlightAware ADS-B
21:56 28.8714 -93.3458 144° Southeast 488 562 37,000 -120 Level FlightAware ADS-B
21:57 28.7892 -93.2753 144° Southeast 488 562 36,900 -60 Descending Houston Center
21:58 28.6794 -93.1839 144° Southeast 489 563 36,900  Level Houston Center
21:59 28.5467 -93.0733 144° Southeast 492 566 36,900  Level Houston Center
22:00 28.4364 -92.9806 143° Southeast 495 570 37,000  Climbing Houston Center
22:01 28.3256 -92.8881 144° Southeast 495 570 36,900  Descending Houston Center
22:02 28.2144 -92.7978 144° Southeast 493 567 37,000  Climbing Houston Center
22:03 28.1039 -92.7058 144° Southeast 493 567 36,900  Descending Houston Center
22:09 27.4203 -92.1474 144° Southeast 498 573 37,000  Climbing FlightAware ADS-B
22:10 27.2975 -92.0478 144° Southeast 496 571 36,900  Descending Houston Center
22:11 27.1858 -91.9581 144° Southeast 495 570 37,000  Climbing Houston Center
22:12 27.0728 -91.8681 145° Southeast 497 572 37,000 -60 Level Houston Center
22:13 26.9611 -91.7769 144° Southeast 498 573 36,900 -60 Descending Houston Center
22:14 26.8514 -91.6897 145° Southeast 493 567 36,900  Level Houston Center
22:15 26.7392 -91.5997 144° Southeast 496 571 37,000  Climbing Houston Center
22:16 26.6175 -91.5019 144° Southeast 496 571 37,000 -60 Level Houston Center
22:17 26.5075 -91.4172 145° Southeast 493 567 36,900  Descending Houston Center
22:18 26.3861 -91.3228 145° Southeast 491 565 37,000  Climbing Houston Center
22:20 26.2492 -91.2038 145° Southeast  Level FlightAware Approximate
22:27 25.4855 -90.6067 145° Southeast  Level FlightAware Approximate
22:28 25.3762 -90.5220 145° Southeast  Level FlightAware Approximate
22:29 25.2668 -90.4375 145° Southeast  Level FlightAware Approximate
22:30 25.1574 -90.3531 145° Southeast  Level FlightAware Approximate
22:31 25.0480 -90.2689 145° Southeast  Level FlightAware Approximate
22:32 24.9384 -90.1848 145° Southeast  Level FlightAware Approximate
22:33 24.8289 -90.1009 145° Southeast  Level FlightAware Approximate
22:34 24.7193 -90.0171 145° Southeast  Level FlightAware Approximate
22:35 24.6097 -89.9335 145° Southeast  Level FlightAware Approximate
22:36 24.5000 -89.8500 138° Southeast  Level FlightAware Approximate
22:37 24.4042 -89.7480 135° Southeast  Level FlightAware Approximate
22:38 24.3090 -89.6454 136° Southeast  Level FlightAware Approximate
22:39 24.2137 -89.5430 136° Southeast  Level FlightAware Approximate
22:40 24.1184 -89.4408 136° Southeast  Level FlightAware Approximate
22:41 24.0229 -89.3387 136° Southeast  Level FlightAware Approximate
22:42 23.9274 -89.2367 136° Southeast  Level FlightAware Approximate
22:43 23.8319 -89.1349 136° Southeast  Level FlightAware Approximate
22:44 23.7360 -89.0336 136° Southeast  Level FlightAware Approximate
22:44 23.4990 -89.0980 136° Southeast 479 551 37,000  Level FlightAware
22:45 23.4080 -89.0300 146° Southeast 478 550 37,000  Level FlightAware
22:45 23.3390 -88.9780 145° Southeast 476 548 37,000  Level FlightAware
22:46 23.2430 -88.9060 145° Southeast 474 545 37,000  Level FlightAware
22:47 23.1610 -88.8450 146° Southeast 473 544 37,000  Level FlightAware
22:48 23.0840 -88.7880 146° Southeast 471 542 37,000  Level FlightAware
22:48 23.0050 -88.7300 146° Southeast 471 542 37,000  Level FlightAware
22:49 22.9320 -88.6660 141° Southeast 474 545 37,000  Level FlightAware
22:50 22.8640 -88.5980 137° Southeast 475 547 37,000  Level FlightAware
22:51 22.7890 -88.5260 138° Southeast 476 548 37,000  Level FlightAware
22:51 22.7020 -88.4460 140° Southeast 478 550 37,000  Level FlightAware
22:52 22.6330 -88.3790 138° Southeast 477 549 37,000  Level FlightAware
22:53 22.5690 -88.3160 138° Southeast 476 548 37,000  Level FlightAware
22:54 22.4960 -88.2450 138° Southeast 475 547 37,000  Level FlightAware
22:54 22.4280 -88.1790 138° Southeast 475 547 37,000  Level FlightAware
22:55 22.3860 -88.1390 139° Southeast 481 554 37,000  Level FlightAware
22:55 22.3110 -88.0650 138° Southeast 482 555 37,000  Level FlightAware
22:56 22.2360 -87.9930 138° Southeast 482 555 37,000  Level FlightAware
22:57 22.1670 -87.9260 138° Southeast 483 556 37,000  Level FlightAware
22:58 22.0950 -87.8560 138° Southeast 486 559 37,000  Level FlightAware
22:58 22.0260 -87.7900 138° Southeast 488 562 37,000  Level FlightAware
22:59 21.9630 -87.7280 138° Southeast 487 560 37,000  Level FlightAware
23:00 21.9050 -87.6730 139° Southeast 489 563 37,000  Level FlightAware
23:00 21.8510 -87.6200 138° Southeast 489 563 37,000  Level FlightAware
23:01 21.7350 -87.5090 138° Southeast 490 564 37,000  Level FlightAware
23:02 21.6790 -87.4560 139° Southeast 490 564 37,000  Level FlightAware
23:02 21.6170 -87.3960 138° Southeast 490 564 37,000  Level FlightAware
23:03 21.5130 -87.2960 138° Southeast 490 564 37,000  Level FlightAware
23:04 21.4440 -87.2310 139° Southeast 490 564 37,000  Level FlightAware
23:05 21.3740 -87.1640 138° Southeast 490 564 37,000  Level FlightAware
23:05 21.3130 -87.1060 138° Southeast 489 563 37,000  Level FlightAware
23:06 21.2280 -87.0250 138° Southeast 489 563 37,000  Level FlightAware
23:07 21.1610 -86.9610 138° Southeast 489 563 37,000  Level FlightAware
23:07 21.0920 -86.8960 139° Southeast 488 562 37,000  Level FlightAware
23:08 21.0150 -86.8230 138° Southeast 488 562 37,000  Level FlightAware
23:09 20.9440 -86.7560 139° Southeast 487 560 37,000  Level FlightAware
23:09 20.8760 -86.6920 139° Southeast 486 559 37,000  Level FlightAware
23:10 20.7990 -86.6190 138° Southeast 486 559 37,000  Level FlightAware
23:11 20.7670 -86.5890 139° Southeast 486 559 37,000  Level FlightAware
23:12 20.6640 -86.4920 139° Southeast 488 562 37,000  Level FlightAware
23:13 20.5810 -86.4140 139° Southeast 488 562 37,000  Level FlightAware
23:13 20.5000 -86.3370 138° Southeast 490 564 37,000  Level FlightAware
23:14 20.4420 -86.2830 139° Southeast 489 563 37,000  Level FlightAware
23:15 20.3880 -86.2330 139° Southeast 490 564 37,000  Level FlightAware
23:15 20.3080 -86.1580 139° Southeast 489 563 37,000  Level FlightAware
23:16 20.2380 -86.0910 138° Southeast 489 563 37,000  Level FlightAware
23:17 20.1360 -85.9980 139° Southeast 491 565 37,000  Level FlightAware
23:17 20.0660 -85.9330 139° Southeast 493 567 37,000  Level FlightAware
23:18 19.9910 -85.8620 138° Southeast 494 568 37,000  Level FlightAware
23:19 19.9220 -85.7970 138° Southeast 494 568 37,000  Level FlightAware
23:20 19.8480 -85.7270 138° Southeast 494 568 37,000  Level FlightAware
23:20 19.7820 -85.6650 139° Southeast 494 568 37,000  Level FlightAware
23:21 19.7050 -85.5920 138° Southeast 492 566 37,000  Level FlightAware
23:22 19.6350 -85.5270 139° Southeast 493 567 37,000  Level FlightAware
23:22 19.5720 -85.4680 139° Southeast 493 567 37,000  Level FlightAware
23:23 19.5050 -85.4050 138° Southeast 492 566 37,000  Level FlightAware
23:24 19.4220 -85.3270 138° Southeast 491 565 37,000  Level FlightAware
23:24 19.3490 -85.2590 139° Southeast 490 564 37,000  Level FlightAware
23:25 19.2720 -85.1880 139° Southeast 491 565 37,000  Level FlightAware
23:26 19.2180 -85.1360 138° Southeast 491 565 37,000  Level FlightAware
23:26 19.1660 -85.0860 138° Southeast 491 565 37,000  Level FlightAware
23:27 19.1000 -85.0230 138° Southeast 491 565 37,000  Level FlightAware
23:28 19.0300 -84.9560 138° Southeast 491 565 37,000  Level FlightAware
23:29 18.9780 -84.9070 138° Southeast 491 565 37,000  Level FlightAware
23:30 18.8920 -84.8250 138° Southeast 491 565 37,000  Level FlightAware
23:30 18.8400 -84.7760 138° Southeast 491 565 37,000  Level FlightAware
23:31 18.7720 -84.7110 138° Southeast 491 565 37,000  Level FlightAware
23:32 18.7180 -84.6600 138° Southeast 491 565 37,000  Level FlightAware
23:32 18.6500 -84.5950 138° Southeast 491 565 37,000  Level FlightAware
23:33 18.5980 -84.5460 138° Southeast 491 565 37,000  Level FlightAware
23:34 18.5290 -84.4800 138° Southeast 491 565 37,000  Level FlightAware
23:34 18.4770 -84.4310 138° Southeast 491 565 37,000  Level FlightAware
23:37 18.2712 -84.2294 137° Southeast  Level Estimated
23:38 18.1738 -84.1343 137° Southeast  Level Estimated
23:39 18.0765 -84.0393 137° Southeast  Level Estimated
23:40 17.9791 -83.9444 137° Southeast  Level Estimated
23:41 17.8816 -83.8496 137° Southeast  Level Estimated
23:42 17.7841 -83.7550 137° Southeast  Level Estimated
23:43 17.6866 -83.6604 137° Southeast  Level Estimated
23:44 17.5890 -83.5659 137° Southeast  Level Estimated
23:45 17.4913 -83.4716 137° Southeast  Level Estimated
23:46 17.3937 -83.3773 137° Southeast  Level Estimated
23:47 17.2959 -83.2831 137° Southeast  Level Estimated
23:48 17.1982 -83.1891 137° Southeast  Level Estimated
23:49 17.1003 -83.0951 137° Southeast  Level Estimated
23:50 17.0025 -83.0013 137° Southeast  Level Estimated
23:51 16.9046 -82.9075 137° Southeast  Level Estimated
23:52 16.8067 -82.8138 138° Southeast  Level Estimated
23:53 16.7087 -82.7202 138° Southeast  Level Estimated
23:54 16.6106 -82.6268 138° Southeast  Level Estimated
23:55 16.5126 -82.5334 138° Southeast  Level Estimated
23:56 16.4145 -82.4401 138° Southeast  Level Estimated
23:57 16.3163 -82.3469 138° Southeast  Level Estimated
23:58 16.2181 -82.2538 138° Southeast  Level Estimated
23:59 16.1199 -82.1608 138° Southeast  Level Estimated
00:00 16.0216 -82.0679 138° Southeast  Level Estimated
00:01 15.9233 -81.9751 138° Southeast  Level Estimated
00:02 15.8250 -81.8823 138° Southeast  Level Estimated
00:03 15.7266 -81.7897 138° Southeast  Level Estimated
00:04 15.6281 -81.6971 138° Southeast  Level Estimated
00:05 15.5297 -81.6047 138° Southeast  Level Estimated
00:06 15.4312 -81.5123 138° Southeast  Level Estimated
00:07 15.3326 -81.4200 138° Southeast  Level Estimated
00:08 15.2340 -81.3278 138° Southeast  Level Estimated
00:09 15.1354 -81.2357 138° Southeast  Level Estimated
00:10 15.0368 -81.1437 138° Southeast  Level Estimated
00:11 14.9379 -81.0516 138° Southeast  Level Estimated
00:12 14.8390 -80.9595 138° Southeast  Level Estimated
00:13 14.7400 -80.8676 138° Southeast  Level Estimated
00:14 14.6411 -80.7757 138° Southeast  Level Estimated
00:15 14.5420 -80.6840 138° Southeast  Level Estimated
00:16 14.4430 -80.5923 138° Southeast  Level Estimated
00:17 14.3439 -80.5007 138° Southeast  Level Estimated
00:18 14.2448 -80.4091 138° Southeast  Level Estimated
00:19 14.1456 -80.3177 138° Southeast  Level Estimated
00:20 14.0464 -80.2263 138° Southeast  Level Estimated
00:21 13.9472 -80.1350 138° Southeast  Level Estimated
00:22 13.8479 -80.0438 138° Southeast  Level Estimated
00:23 13.7486 -79.9527 138° Southeast  Level Estimated
00:24 13.6493 -79.8616 138° Southeast  Level Estimated
00:25 13.5500 -79.7707 138° Southeast  Level Estimated
00:26 13.4506 -79.6798 138° Southeast  Level Estimated
00:27 13.3511 -79.5889 138° Southeast  Level Estimated
00:28 13.2517 -79.4982 138° Southeast  Level Estimated
00:29 13.1522 -79.4075 138° Southeast  Level Estimated
00:30 13.0527 -79.3169 138° Southeast  Level Estimated
00:31 12.9531 -79.2264 138° Southeast  Level Estimated
00:32 12.8537 -79.1361 138° Southeast  Level Estimated
00:33 12.7543 -79.0459 138° Southeast  Level Estimated
00:34 12.6548 -78.9557 139° Southeast  Level Estimated
00:35 12.5553 -78.8656 139° Southeast  Level Estimated
00:36 12.4558 -78.7756 139° Southeast  Level Estimated
00:37 12.3562 -78.6857 139° Southeast  Level Estimated
00:38 12.2566 -78.5958 139° Southeast  Level Estimated
00:39 12.1570 -78.5060 139° Southeast  Level Estimated
00:40 12.0574 -78.4162 139° Southeast  Level Estimated
00:41 11.9577 -78.3266 139° Southeast  Level Estimated
00:42 11.8580 -78.2369 139° Southeast  Level Estimated
00:43 11.7582 -78.1474 139° Southeast  Level Estimated
00:44 11.6585 -78.0579 139° Southeast  Level Estimated
00:45 11.5587 -77.9685 139° Southeast  Level Estimated
00:46 11.4589 -77.8792 139° Southeast  Level Estimated
00:47 11.3589 -77.7897 139° Southeast  Level Estimated
00:48 11.2588 -77.7003 139° Southeast  Level Estimated
00:49 11.1587 -77.6110 139° Southeast  Level Estimated
00:50 11.0586 -77.5218 139° Southeast  Level Estimated
00:51 10.9585 -77.4325 139° Southeast  Level Estimated
00:52 10.8584 -77.3434 139° Southeast  Level Estimated
00:53 10.7582 -77.2543 139° Southeast  Level Estimated
00:54 10.6580 -77.1653 139° Southeast  Level Estimated
00:55 10.5577 -77.0763 139° Southeast  Level Estimated
00:56 10.4575 -76.9874 139° Southeast  Level Estimated
00:57 10.3572 -76.8986 139° Southeast  Level Estimated
00:58 10.2569 -76.8098 139° Southeast  Level Estimated
00:59 10.1566 -76.7211 139° Southeast  Level Estimated
01:00 10.0562 -76.6324 139° Southeast  Level Estimated
01:01 9.9559 -76.5438 139° Southeast  Level Estimated
01:02 9.8555 -76.4552 139° Southeast  Level Estimated
01:03 9.7550 -76.3667 139° Southeast  Level Estimated
01:04 9.6546 -76.2782 139° Southeast  Level Estimated
01:05 9.5541 -76.1898 139° Southeast  Level Estimated
01:05 8.9960 -75.5240 139° Southeast 484 557 37,000  Level FlightAware
01:06 9.4537 -76.1015 139° Southeast  Level Estimated
01:06 8.9690 -75.4260 106° East 484 557 37,000  Level FlightAware
01:06 8.9450 -75.3380 105° East 485 558 37,000  Level FlightAware
01:07 8.9230 -75.2550 105° East 485 558 37,000  Level FlightAware
01:08 8.8950 -75.1540 106° East 485 558 37,000  Level FlightAware
01:08 8.8720 -75.0660 105° East 484 557 37,000  Level FlightAware
01:09 8.8460 -74.9700 105° East 485 558 37,000  Level FlightAware
01:10 8.8240 -74.8870 105° East 484 557 37,000  Level FlightAware
01:11 8.7910 -74.7600 105° East 484 557 37,000  Level FlightAware
01:12 8.7610 -74.6500 105° East 484 557 37,000  Level FlightAware
01:12 8.7430 -74.5820 105° East 484 557 37,000  Level FlightAware
01:13 8.7200 -74.4920 104° East 484 557 37,000  Level FlightAware
01:16 8.4920 -74.2994 140° Southeast  Level Estimated
01:17 8.3899 -74.2132 140° Southeast  Level Estimated
01:18 8.2878 -74.1271 140° Southeast  Level Estimated
01:19 8.1856 -74.0411 140° Southeast  Level Estimated
01:20 8.0834 -73.9550 140° Southeast  Level Estimated
01:21 7.9812 -73.8690 140° Southeast  Level Estimated
01:22 7.8790 -73.7831 140° Southeast  Level Estimated
01:23 7.7768 -73.6972 140° Southeast  Level Estimated
01:24 7.6746 -73.6114 140° Southeast  Level Estimated
01:25 7.5723 -73.5255 140° Southeast  Level Estimated
01:26 7.4700 -73.4398 140° Southeast  Level Estimated
01:27 7.3677 -73.3540 140° Southeast  Level Estimated
01:28 7.2654 -73.2683 140° Southeast  Level Estimated
01:29 7.1631 -73.1827 140° Southeast  Level Estimated
01:29 7.1340 -73.2670 140° Southeast 485 558 37,000  Level FlightAware
01:29 7.0420 -73.2350 161° South 481 554 37,000  Level FlightAware
01:30 6.9620 -73.2060 160° South 480 552 37,000  Level FlightAware
01:31 6.8650 -73.1720 161° South 477 549 37,000  Level FlightAware
01:31 6.7910 -73.1450 160° South 477 549 37,000  Level FlightAware
01:32 6.7280 -73.1220 160° South 477 549 37,000  Level FlightAware
01:33 6.6420 -73.0900 160° South 477 549 37,000  Level FlightAware
01:33 6.5780 -73.0670 160° South 477 549 37,000  Level FlightAware
01:34 6.4930 -73.0360 160° South 477 549 37,000  Level FlightAware
01:37 6.2689 -72.8439 140° Southeast  Level FlightAware Approximate
01:37 6.2430 -72.9440 140° Southeast 477 549 37,000  Level FlightAware
01:37 6.1800 -72.9210 160° South 477 549 37,000  Level FlightAware
01:38 6.1140 -72.8970 160° South 477 549 37,000  Level FlightAware
01:39 6.0280 -72.8660 160° South 477 549 37,000  Level FlightAware
01:39 5.9650 -72.8420 159° South 477 549 37,000  Level FlightAware
01:41 5.6340 -72.7370 162° South 493 567 37,000  Level FlightAware
01:41 5.4990 -72.6900 161° South 494 568 37,000  Level FlightAware
01:42 5.4050 -72.6570 161° South 494 568 37,000  Level FlightAware
01:43 5.3180 -72.6260 160° South 494 568 37,000  Level FlightAware
01:44 5.2040 -72.5850 160° South 495 570 37,000  Level FlightAware
01:44 5.1380 -72.5610 160° South 495 570 37,000  Level FlightAware
01:45 5.0260 -72.5200 160° South 495 570 37,000  Level FlightAware
01:46 4.9600 -72.4960 160° South 495 570 37,000  Level FlightAware
01:47 4.8730 -72.4640 160° South 495 570 37,000  Level FlightAware
01:47 4.8070 -72.4400 160° South 495 570 37,000  Level FlightAware
01:48 4.7190 -72.4080 160° South 495 570 37,000  Level FlightAware
01:49 4.6510 -72.3830 160° South 495 570 37,000  Level FlightAware
01:52 4.3901 -72.1566 139° Southeast  Level Estimated
01:53 4.2904 -72.0701 139° Southeast  Level Estimated
01:54 4.1907 -71.9836 139° Southeast  Level Estimated
01:55 4.0910 -71.8972 139° Southeast  Level Estimated
01:56 3.9912 -71.8108 139° Southeast  Level Estimated
01:57 3.8915 -71.7244 139° Southeast  Level Estimated
01:58 3.7917 -71.6380 139° Southeast  Level Estimated
01:59 3.6920 -71.5516 139° Southeast  Level Estimated
02:00 3.5922 -71.4653 139° Southeast  Level Estimated
02:01 3.4924 -71.3790 139° Southeast  Level Estimated
02:02 3.3926 -71.2927 139° Southeast  Level Estimated
02:03 3.2928 -71.2064 139° Southeast  Level Estimated
02:04 3.1930 -71.1201 139° Southeast  Level Estimated
02:05 3.0932 -71.0339 139° Southeast  Level Estimated
02:06 2.9934 -70.9476 139° Southeast  Level Estimated
02:07 2.8935 -70.8614 139° Southeast  Level Estimated
02:08 2.7937 -70.7752 139° Southeast  Level Estimated
02:09 2.6939 -70.6890 139° Southeast  Level Estimated
02:10 2.5940 -70.6028 139° Southeast  Level Estimated
02:11 2.4941 -70.5166 139° Southeast  Level Estimated
02:12 2.3943 -70.4305 139° Southeast  Level Estimated
02:13 2.2944 -70.3444 139° Southeast  Level Estimated
02:14 2.1946 -70.2582 139° Southeast  Level Estimated
02:15 2.0947 -70.1721 139° Southeast  Level Estimated
02:16 1.9948 -70.0860 139° Southeast  Level Estimated
02:17 1.8949 -69.9999 139° Southeast  Level Estimated
02:18 1.7950 -69.9139 139° Southeast  Level Estimated
02:19 1.6952 -69.8278 139° Southeast  Level Estimated
02:20 1.5953 -69.7417 139° Southeast  Level Estimated
02:21 1.4954 -69.6557 139° Southeast  Level Estimated
02:22 1.3954 -69.5696 139° Southeast  Level Estimated
02:23 1.2955 -69.4836 139° Southeast  Level Estimated
02:24 1.1956 -69.3976 139° Southeast  Level Estimated
02:25 1.0957 -69.3115 139° Southeast  Level Estimated
02:26 0.9958 -69.2255 139° Southeast  Level Estimated
02:27 0.8959 -69.1395 139° Southeast  Level Estimated
02:28 0.7960 -69.0535 139° Southeast  Level Estimated
02:29 0.6960 -68.9675 139° Southeast  Level Estimated
02:30 0.5961 -68.8815 139° Southeast  Level Estimated
02:31 0.4962 -68.7955 139° Southeast  Level Estimated
02:32 0.3963 -68.7095 139° Southeast  Level Estimated
02:33 0.2964 -68.6235 139° Southeast  Level Estimated
02:34 0.1964 -68.5375 139° Southeast  Level Estimated
02:35 0.0965 -68.4515 139° Southeast  Level Estimated
02:36 -0.0034 -68.3655 139° Southeast  Level Estimated
02:37 -0.1034 -68.2795 139° Southeast  Level Estimated
02:38 -0.2033 -68.1935 139° Southeast  Level Estimated
02:39 -0.3032 -68.1075 139° Southeast  Level Estimated
02:40 -0.4031 -68.0215 139° Southeast  Level Estimated
02:41 -0.5031 -67.9355 139° Southeast  Level Estimated
02:42 -0.6030 -67.8495 139° Southeast  Level Estimated
02:43 -0.7029 -67.7635 139° Southeast  Level Estimated
02:44 -0.8028 -67.6775 139° Southeast  Level Estimated
02:45 -0.9028 -67.5915 139° Southeast  Level Estimated
02:46 -1.0027 -67.5055 139° Southeast  Level Estimated
02:47 -1.1026 -67.4195 139° Southeast  Level Estimated
02:48 -1.2025 -67.3334 139° Southeast  Level Estimated
02:49 -1.3024 -67.2474 139° Southeast  Level Estimated
02:50 -1.4023 -67.1614 139° Southeast  Level Estimated
02:51 -1.5022 -67.0753 139° Southeast  Level Estimated
02:52 -1.6021 -66.9893 139° Southeast  Level Estimated
02:53 -1.7020 -66.9032 139° Southeast  Level Estimated
02:54 -1.8019 -66.8171 139° Southeast  Level Estimated
02:55 -1.9018 -66.7310 139° Southeast  Level Estimated
02:56 -2.0017 -66.6450 139° Southeast  Level Estimated
02:57 -2.1016 -66.5589 139° Southeast  Level Estimated
02:58 -2.2014 -66.4727 139° Southeast  Level Estimated
02:59 -2.3013 -66.3866 139° Southeast  Level Estimated
03:00 -2.4011 -66.3005 139° Southeast  Level Estimated
03:01 -2.5010 -66.2143 139° Southeast  Level Estimated
03:02 -2.6009 -66.1282 139° Southeast  Level Estimated
03:03 -2.7007 -66.0420 139° Southeast  Level Estimated
03:04 -2.8005 -65.9558 139° Southeast  Level Estimated
03:05 -2.9004 -65.8696 139° Southeast  Level Estimated
03:06 -3.0002 -65.7834 139° Southeast  Level Estimated
03:07 -3.1000 -65.6971 139° Southeast  Level Estimated
03:08 -3.1998 -65.6109 139° Southeast  Level Estimated
03:09 -3.2996 -65.5246 139° Southeast  Level Estimated
03:10 -3.3995 -65.4383 139° Southeast  Level Estimated
03:11 -3.4992 -65.3520 139° Southeast  Level Estimated
03:12 -3.5990 -65.2657 139° Southeast  Level Estimated
03:13 -3.6988 -65.1793 139° Southeast  Level Estimated
03:14 -3.7986 -65.0930 139° Southeast  Level Estimated
03:15 -3.8983 -65.0066 139° Southeast  Level Estimated
03:16 -3.9981 -64.9202 139° Southeast  Level Estimated
03:17 -4.0978 -64.8338 139° Southeast  Level Estimated
03:18 -4.1975 -64.7473 139° Southeast  Level Estimated
03:19 -4.2973 -64.6609 139° Southeast  Level Estimated
03:20 -4.3970 -64.5744 139° Southeast  Level Estimated
03:21 -4.4967 -64.4879 139° Southeast  Level Estimated
03:22 -4.5964 -64.4013 139° Southeast  Level Estimated
03:23 -4.6961 -64.3148 139° Southeast  Level Estimated
03:24 -4.7957 -64.2282 139° Southeast  Level Estimated
03:25 -4.8954 -64.1416 139° Southeast  Level Estimated
03:26 -4.9950 -64.0549 139° Southeast  Level Estimated
03:27 -5.0947 -63.9683 139° Southeast  Level Estimated
03:28 -5.1943 -63.8816 139° Southeast  Level Estimated
03:29 -5.2939 -63.7948 139° Southeast  Level Estimated
03:30 -5.3935 -63.7081 139° Southeast  Level Estimated
03:31 -5.4931 -63.6213 139° Southeast  Level Estimated
03:32 -5.5927 -63.5345 139° Southeast  Level Estimated
03:33 -5.6922 -63.4477 139° Southeast  Level Estimated
03:34 -5.7918 -63.3608 139° Southeast  Level Estimated
03:35 -5.8913 -63.2739 139° Southeast  Level Estimated
03:36 -5.9908 -63.1870 139° Southeast  Level Estimated
03:37 -6.0904 -63.1001 139° Southeast  Level Estimated
03:38 -6.1899 -63.0131 139° Southeast  Level Estimated
03:39 -6.2893 -62.9261 139° Southeast  Level Estimated
03:40 -6.3888 -62.8390 139° Southeast  Level Estimated
03:41 -6.4883 -62.7519 139° Southeast  Level Estimated
03:42 -6.5877 -62.6648 139° Southeast  Level Estimated
03:43 -6.6871 -62.5776 139° Southeast  Level Estimated
03:44 -6.7865 -62.4905 139° Southeast  Level Estimated
03:45 -6.8859 -62.4032 139° Southeast  Level Estimated
03:46 -6.9853 -62.3159 139° Southeast  Level Estimated
03:47 -7.0847 -62.2286 139° Southeast  Level Estimated
03:48 -7.1840 -62.1413 139° Southeast  Level Estimated
03:49 -7.2833 -62.0539 139° Southeast  Level Estimated
03:50 -7.3826 -61.9665 139° Southeast  Level Estimated
03:51 -7.4819 -61.8791 139° Southeast  Level Estimated
03:52 -7.5812 -61.7915 139° Southeast  Level Estimated
03:53 -7.6805 -61.7040 139° Southeast  Level Estimated
03:54 -7.7797 -61.6164 139° Southeast  Level Estimated
03:55 -7.8789 -61.5288 139° Southeast  Level Estimated
03:56 -7.9781 -61.4412 139° Southeast  Level Estimated
03:57 -8.0773 -61.3535 139° Southeast  Level Estimated
03:58 -8.1760 -61.2662 139° Southeast  Level Estimated
03:59 -8.2746 -61.1788 139° Southeast  Level Estimated
04:00 -8.3732 -61.0915 139° Southeast  Level Estimated
04:01 -8.4718 -61.0041 139° Southeast  Level Estimated
04:02 -8.5704 -60.9166 139° Southeast  Level Estimated
04:03 -8.6689 -60.8291 139° Southeast  Level Estimated
04:04 -8.7675 -60.7416 139° Southeast  Level Estimated
04:05 -8.8660 -60.6539 139° Southeast  Level Estimated
04:06 -8.9645 -60.5663 139° Southeast  Level Estimated
04:07 -9.0629 -60.4786 139° Southeast  Level Estimated
04:08 -9.1614 -60.3909 139° Southeast  Level Estimated
04:09 -9.2598 -60.3031 139° Southeast  Level Estimated
04:10 -9.3582 -60.2152 139° Southeast  Level Estimated
04:11 -9.4566 -60.1274 139° Southeast  Level Estimated
04:12 -9.5550 -60.0394 139° Southeast  Level Estimated
04:13 -9.6533 -59.9514 139° Southeast  Level Estimated
04:14 -9.7516 -59.8634 139° Southeast  Level Estimated
04:15 -9.8499 -59.7753 139° Southeast  Level Estimated
04:16 -9.9482 -59.6872 139° Southeast  Level Estimated
04:17 -10.0464 -59.5990 139° Southeast  Level Estimated
04:18 -10.1447 -59.5107 139° Southeast  Level Estimated
04:19 -10.2429 -59.4224 138° Southeast  Level Estimated
04:20 -10.3409 -59.3342 138° Southeast  Level Estimated
04:21 -10.4389 -59.2459 138° Southeast  Level Estimated
04:22 -10.5368 -59.1576 138° Southeast  Level Estimated
04:23 -10.6347 -59.0693 138° Southeast  Level Estimated
04:24 -10.7326 -58.9808 138° Southeast  Level Estimated
04:25 -10.8305 -58.8924 138° Southeast  Level Estimated
04:26 -10.9284 -58.8038 138° Southeast  Level Estimated
04:27 -11.0262 -58.7152 138° Southeast  Level Estimated
04:28 -11.1240 -58.6266 138° Southeast  Level Estimated
04:29 -11.2218 -58.5378 138° Southeast  Level Estimated
04:30 -11.3196 -58.4491 138° Southeast  Level Estimated
04:31 -11.4173 -58.3602 138° Southeast  Level Estimated
04:32 -11.5150 -58.2713 138° Southeast  Level Estimated
04:33 -11.6127 -58.1824 138° Southeast  Level Estimated
04:34 -11.7103 -58.0933 138° Southeast  Level Estimated
04:35 -11.8079 -58.0042 138° Southeast  Level Estimated
04:36 -11.9055 -57.9151 138° Southeast  Level Estimated
04:37 -12.0031 -57.8259 138° Southeast  Level Estimated
04:38 -12.1006 -57.7366 138° Southeast  Level Estimated
04:39 -12.1981 -57.6472 138° Southeast  Level Estimated
04:40 -12.2956 -57.5578 138° Southeast  Level Estimated
04:41 -12.3931 -57.4683 138° Southeast  Level Estimated
04:42 -12.4905 -57.3788 138° Southeast  Level Estimated
04:43 -12.5879 -57.2892 138° Southeast  Level Estimated
04:44 -12.6852 -57.1995 138° Southeast  Level Estimated
04:45 -12.7825 -57.1098 138° Southeast  Level Estimated
04:46 -12.8799 -57.0200 138° Southeast  Level Estimated
04:47 -12.9771 -56.9301 138° Southeast  Level Estimated
04:48 -13.0744 -56.8401 138° Southeast  Level Estimated
04:49 -13.1716 -56.7501 138° Southeast  Level Estimated
04:50 -13.2688 -56.6600 138° Southeast  Level Estimated
04:51 -13.3659 -56.5698 138° Southeast  Level Estimated
04:52 -13.4630 -56.4795 138° Southeast  Level Estimated
04:53 -13.5601 -56.3892 138° Southeast  Level Estimated
04:54 -13.6571 -56.2988 138° Southeast  Level Estimated
04:55 -13.7541 -56.2084 138° Southeast  Level Estimated
04:56 -13.8511 -56.1178 138° Southeast  Level Estimated
04:57 -13.9481 -56.0272 138° Southeast  Level Estimated
04:58 -14.0450 -55.9365 138° Southeast  Level Estimated
04:59 -14.1419 -55.8457 138° Southeast  Level Estimated
05:00 -14.2387 -55.7549 138° Southeast  Level Estimated
05:01 -14.3355 -55.6640 138° Southeast  Level Estimated
05:02 -14.4323 -55.5730 138° Southeast  Level Estimated
05:03 -14.5290 -55.4819 138° Southeast  Level Estimated
05:04 -14.6257 -55.3907 138° Southeast  Level Estimated
05:05 -14.7224 -55.2995 138° Southeast  Level Estimated
05:06 -14.8191 -55.2082 138° Southeast  Level Estimated
05:07 -14.9157 -55.1168 138° Southeast  Level Estimated
05:08 -15.0122 -55.0253 138° Southeast  Level Estimated
05:09 -15.1088 -54.9337 138° Southeast  Level Estimated
05:10 -15.2052 -54.8420 137° Southeast  Level Estimated
05:11 -15.3017 -54.7503 137° Southeast  Level Estimated
05:12 -15.3981 -54.6585 137° Southeast  Level Estimated
05:13 -15.4945 -54.5666 137° Southeast  Level Estimated
05:14 -15.5908 -54.4746 137° Southeast  Level Estimated
05:15 -15.6871 -54.3825 137° Southeast  Level Estimated
05:16 -15.7834 -54.2903 137° Southeast  Level Estimated
05:17 -15.8796 -54.1981 137° Southeast  Level Estimated
05:18 -15.9758 -54.1058 137° Southeast  Level Estimated
05:19 -16.0719 -54.0133 137° Southeast  Level Estimated
05:20 -16.1681 -53.9208 137° Southeast  Level Estimated
05:21 -16.2641 -53.8282 137° Southeast  Level Estimated
05:22 -16.3601 -53.7355 137° Southeast  Level Estimated
05:23 -16.4561 -53.6427 137° Southeast  Level Estimated
05:24 -16.5521 -53.5498 137° Southeast  Level Estimated
05:25 -16.6480 -53.4568 137° Southeast  Level Estimated
05:26 -16.7438 -53.3638 137° Southeast  Level Estimated
05:27 -16.8396 -53.2706 137° Southeast  Level Estimated
05:28 -16.9354 -53.1773 137° Southeast  Level Estimated
05:29 -17.0312 -53.0840 137° Southeast  Level Estimated
05:30 -17.1269 -52.9906 137° Southeast  Level Estimated
05:31 -17.2225 -52.8970 137° Southeast  Level Estimated
05:32 -17.3181 -52.8034 137° Southeast  Level Estimated
05:33 -17.4137 -52.7096 137° Southeast  Level Estimated
05:34 -17.5092 -52.6158 137° Southeast  Level Estimated
05:35 -17.6047 -52.5218 137° Southeast  Level Estimated
05:36 -17.7001 -52.4278 137° Southeast  Level Estimated
05:37 -17.7955 -52.3337 137° Southeast  Level Estimated
05:38 -17.8908 -52.2394 137° Southeast  Level Estimated
05:39 -17.9861 -52.1451 137° Southeast  Level Estimated
05:40 -18.0814 -52.0506 137° Southeast  Level Estimated
05:41 -18.1766 -51.9561 137° Southeast  Level Estimated
05:42 -18.2717 -51.8615 137° Southeast  Level Estimated
05:43 -18.3668 -51.7667 137° Southeast  Level Estimated
05:44 -18.4619 -51.6718 137° Southeast  Level Estimated
05:45 -18.5569 -51.5769 137° Southeast  Level Estimated
05:46 -18.6519 -51.4818 137° Southeast  Level Estimated
05:47 -18.7468 -51.3867 136° Southeast  Level Estimated
05:47 -18.9090 -50.7700 136° Southeast 474 545 41,000  Level FlightAware
05:48 -18.8417 -51.2914 136° Southeast  Level Estimated
05:48 -18.9780 -50.6930 133° Southeast 474 545 41,000  Level FlightAware
05:48 -19.0630 -50.6020 135° Southeast 473 544 41,000  Level FlightAware
05:49 -19.1210 -50.5390 134° Southeast 473 544 41,000  Level FlightAware
05:50 -19.1900 -50.4630 134° Southeast 472 543 41,000  Level FlightAware
05:50 -19.2520 -50.3950 134° Southeast 472 543 41,000  Level FlightAware
05:51 -19.3120 -50.3300 134° Southeast 472 543 41,000  Level FlightAware
05:52 -19.3770 -50.2590 134° Southeast 473 544 41,000  Level FlightAware
05:53 -19.4420 -50.1860 133° Southeast 473 544 41,000  Level FlightAware
05:53 -19.5090 -50.1130 134° Southeast 474 545 41,000  Level FlightAware
05:54 -19.5700 -50.0450 134° Southeast 474 545 41,000  Level FlightAware
05:55 -19.6370 -49.9710 134° Southeast 473 544 41,000  Level FlightAware
05:55 -19.6990 -49.9050 135° Southeast 473 544 41,000  Level FlightAware
05:56 -19.7620 -49.8350 134° Southeast 473 544 41,000  Level FlightAware
05:57 -19.8270 -49.7650 135° Southeast 474 545 41,000  Level FlightAware
05:57 -19.8900 -49.6950 134° Southeast 475 547 41,000  Level FlightAware
05:58 -19.9520 -49.6270 134° Southeast 475 547 41,000  Level FlightAware
05:59 -20.0130 -49.5600 134° Southeast 475 547 41,000  Level FlightAware
06:00 -20.0820 -49.4850 134° Southeast 475 547 41,000  Level FlightAware
06:00 -20.1570 -49.4020 134° Southeast 475 547 41,000  Level FlightAware
06:01 -20.2330 -49.3180 134° Southeast 476 548 41,000  Level FlightAware
06:02 -20.2940 -49.2510 134° Southeast 475 547 41,000  Level FlightAware
06:02 -20.3550 -49.1840 134° Southeast 475 547 41,000  Level FlightAware
06:03 -20.4270 -49.1050 134° Southeast 476 548 41,000  Level FlightAware
06:04 -20.4910 -49.0340 134° Southeast 477 549 41,000  Level FlightAware
06:05 -20.5530 -48.9650 134° Southeast 477 549 41,000  Level FlightAware
06:05 -20.5970 -48.9150 133° Southeast 478 550 41,000  Level FlightAware
06:06 -20.6810 -48.8220 134° Southeast 477 549 41,000  Level FlightAware
06:07 -20.7470 -48.7480 134° Southeast 475 547 41,000  Level FlightAware
06:07 -20.8080 -48.6800 134° Southeast 474 545 41,000  Level FlightAware
06:08 -20.8680 -48.6120 133° Southeast 474 545 41,000  Level FlightAware
06:09 -20.9380 -48.5340 134° Southeast 475 547 41,000  Level FlightAware
06:10 -20.9970 -48.4680 134° Southeast 476 548 41,000  Level FlightAware
06:10 -21.0610 -48.3950 133° Southeast 477 549 41,000  Level FlightAware
06:11 -21.1250 -48.3240 134° Southeast 478 550 41,000  Level FlightAware
06:12 -21.2180 -48.2180 133° Southeast 476 548 41,000  Level FlightAware
06:13 -21.2760 -48.1520 133° Southeast 477 549 41,000  Level FlightAware
06:13 -21.3420 -48.0770 133° Southeast 477 549 41,000  Level FlightAware
06:14 -21.4100 -48.0000 133° Southeast 476 548 41,000  Level FlightAware
06:15 -21.4710 -47.9320 134° Southeast 476 548 41,000  Level FlightAware
06:15 -21.5330 -47.8610 133° Southeast 474 545 41,000  Level FlightAware
06:16 -21.5940 -47.7920 134° Southeast 475 547 41,000 -300 Level FlightAware
06:17 -21.6610 -47.7160 133° Southeast 473 544 40,600 -1,080 Descending FlightAware
06:17 -21.7210 -47.6470 133° Southeast 478 550 39,500 -1,500 Descending FlightAware
06:18 -21.7910 -47.5670 133° Southeast 481 554 38,500 -1,560 Descending FlightAware
06:19 -21.8340 -47.5180 133° Southeast 481 554 37,400 -2,940 Descending FlightAware
06:19 -21.9050 -47.4370 133° Southeast 491 565 34,900 -2,100 Descending FlightAware
06:21 -21.9640 -47.3700 134° Southeast 485 558 33,100 -2,340 Descending FlightAware
06:21 -22.0570 -47.3140 151° Southeast 461 531 31,200 -4,320 Descending FlightAware
06:22 -22.1630 -47.2710 159° South 451 519 29,100 -2,520 Descending FlightAware
06:23 -22.2430 -47.2380 159° South 446 513 27,600 -2,280 Descending FlightAware
06:23 -22.3130 -47.2090 159° South 440 506 26,200 -2,220 Descending FlightAware
06:24 -22.4030 -47.1720 159° South 434 499 24,500 -2,160 Descending FlightAware
06:25 -22.4750 -47.1410 158° South 430 495 23,100 -1,380 Descending FlightAware
06:25 -22.5370 -47.1140 158° South 428 493 22,700 -2,220 Descending FlightAware
06:26 -22.6320 -47.0740 159° South 418 481 19,900 -3,000 Descending FlightAware
06:27 -22.7150 -47.0400 159° South 411 473 18,300 -2,220 Descending FlightAware
06:27 -22.7890 -47.0080 158° South 408 470 16,800 -2,160 Descending FlightAware
06:28 -22.8620 -46.9780 159° South 402 463 15,300 -2,220 Descending FlightAware
06:29 -22.9390 -46.9460 159° South 395 455 13,700 -2,160 Descending FlightAware
06:30 -23.0030 -46.9190 159° South 379 436 12,400 -1,320 Descending FlightAware
06:30 -23.0660 -46.8920 158° South 336 387 12,000 -1,200 Descending FlightAware
06:31 -23.1270 -46.8670 159° South 302 348 10,700 -2,040 Descending FlightAware
06:31 -23.1630 -46.8510 158° South 293 337 9,500 -2,220 Descending FlightAware
06:32 -23.1840 -46.8430 161° South 287 330 9,100 -1,380 Descending FlightAware
06:32 -23.2180 -46.8280 158° South 284 327 8,500 -1,320 Descending FlightAware
06:33 -23.2470 -46.8160 159° South 283 326 8,000 -1,020 Descending FlightAware
06:33 -23.2820 -46.8010 159° South 270 311 7,600 -720 Descending FlightAware
06:34 -23.3160 -46.7870 159° South 257 296 7,300 -660 Descending FlightAware
06:34 -23.3450 -46.7740 158° South 246 283 7,000 -660 Descending FlightAware
06:34 -23.3580 -46.7690 161° South 239 275 6,900 -600 Descending FlightAware
06:35 -23.3850 -46.7510 149° Southeast 230 265 6,600 -840 Descending FlightAware
06:35 -23.4090 -46.7290 140° Southeast 226 260 6,100 -1,020 Descending FlightAware
06:36 -23.4280 -46.7100 137° Southeast 223 257 5,700 -960 Descending FlightAware
06:36 -23.4490 -46.6880 136° Southeast 219 252 5,300 -840 Descending FlightAware
06:37 -23.4630 -46.6590 118° Southeast 208 239 4,900 -780 Descending FlightAware
06:37 -23.4730 -46.6330 113° Southeast 202 232 4,600 -600 Descending FlightAware
06:37 -23.4740 -46.6190 94° East 189 217 4,500 -480 Descending FlightAware
06:38 -23.4690 -46.5990 75° East 171 197 4,300 -780 Descending FlightAware
06:38 -23.4620 -46.5720 74° East 162 186 3,800 -840 Descending FlightAware
06:38 -23.4590 -46.5630 70° East 149 171 3,700 -780 Descending FlightAware
06:39 -23.4540 -46.5440 74° East 138 159 3,300 -780 Descending FlightAware
06:39 -23.4490 -46.5250 74° East 139 160 3,000 -780 Descending FlightAware
06:40 -23.4470 -46.5170 75° East 138 159 2,800 -540 Descending FlightAware
06:40 -23.4440 -46.5060 73° East 137 158 2,700 -660 Descending FlightAware
06:41 -23.4370 -46.4790 74° East 126 145 2,200 -900 Descending FlightAware
06:41 -23.4340 -46.4690 72° East 60 69 -5,100 Descending FlightAware
06:41 -23.4320 -46.4620 73° East 60 69  Level FlightAware